Time;durP1;ratioP1;P1;durP2;ratioP2;P2;SDS_P1;SDS_P2;PMS_P1;PMS_P2;Temp;Humidity;BMP_temperature;BMP_pressure;BME280_temperature;BME280_humidity;BME280_pressure;Samples;Min_cycle;Max_cycle;Signal;HPM_P1;HPM_P2
2021/01/20 00:01:44;;;;;;;14.30;8.45;;;;;;;4.82;62.01;99871.16;5071014;28;20020;-72
2021/01/20 00:04:10;;;;;;;16.05;9.40;;;;;;;5.33;61.06;99873.88;5062743;28;20404;-71
2021/01/20 00:06:35;;;;;;;18.42;9.32;;;;;;;5.64;59.91;99865.88;5057172;28;20448;-75
2021/01/20 00:09:00;;;;;;;15.15;8.45;;;;;;;4.99;61.73;99865.50;5059941;28;20025;-75
2021/01/20 00:11:26;;;;;;;16.95;8.77;;;;;;;4.86;61.94;99858.97;5063831;28;20162;-74
2021/01/20 00:13:55;;;;;;;18.40;10.25;;;;;;;4.79;62.17;99860.09;5063395;28;20459;-75
2021/01/20 00:16:20;;;;;;;16.67;10.00;;;;;;;4.39;63.50;99861.34;5063867;28;20356;-75
2021/01/20 00:18:46;;;;;;;18.45;8.63;;;;;;;4.62;62.83;99850.25;5066311;28;20507;-74
2021/01/20 00:21:12;;;;;;;18.17;8.65;;;;;;;4.94;61.88;99856.16;5061153;28;20037;-74
2021/01/20 00:23:37;;;;;;;18.45;9.63;;;;;;;5.15;61.06;99849.44;5047772;28;20546;-74
2021/01/20 00:26:03;;;;;;;21.52;8.82;;;;;;;4.63;63.07;99849.34;5066476;28;20056;-75
2021/01/20 00:28:28;;;;;;;17.55;9.20;;;;;;;4.54;63.16;99849.63;5060037;28;20037;-76
2021/01/20 00:30:56;;;;;;;16.20;8.30;;;;;;;5.62;60.06;99840.00;5064599;28;20035;-76
2021/01/20 00:33:23;;;;;;;17.52;8.40;;;;;;;4.35;63.79;99857.97;5062923;28;20056;-75
2021/01/20 00:35:49;;;;;;;14.52;9.00;;;;;;;4.55;62.49;99841.00;5066628;28;20389;-75
2021/01/20 00:38:14;;;;;;;19.48;9.10;;;;;;;4.23;63.74;99840.25;5060742;28;20087;-75
2021/01/20 00:40:40;;;;;;;16.23;9.82;;;;;;;3.96;63.79;99850.50;5065908;28;20062;-74
2021/01/20 00:43:05;;;;;;;18.25;9.35;;;;;;;4.46;62.78;99834.38;5062451;28;20063;-75
2021/01/20 00:45:31;;;;;;;17.83;9.60;;;;;;;4.75;61.90;99835.19;5078260;28;20051;-74
2021/01/20 00:47:56;;;;;;;18.60;10.73;;;;;;;4.69;61.70;99835.38;5057515;28;20032;-75
2021/01/20 00:50:22;;;;;;;17.88;10.90;;;;;;;4.54;62.01;99828.94;5061688;28;20034;-75
2021/01/20 00:52:47;;;;;;;19.63;9.88;;;;;;;4.13;63.19;99812.97;5072586;28;20112;-75
2021/01/20 00:55:14;;;;;;;20.38;11.30;;;;;;;4.97;60.69;99827.59;5066630;28;20090;-75
2021/01/20 00:57:42;;;;;;;17.27;9.25;;;;;;;4.67;61.15;99816.47;5063281;28;20078;-75
2021/01/20 01:00:09;;;;;;;25.33;11.02;;;;;;;4.02;63.31;99814.13;5057511;28;20466;-75
2021/01/20 01:02:41;;;;;;;23.75;11.43;;;;;;;4.56;61.74;99820.22;5061888;28;20027;-76
2021/01/20 01:05:08;;;;;;;19.42;11.43;;;;;;;4.21;62.85;99811.84;5061579;28;20032;-74
2021/01/20 01:07:34;;;;;;;21.02;12.02;;;;;;;4.67;61.76;99812.13;5061853;28;20401;-73
2021/01/20 01:09:59;;;;;;;18.90;11.13;;;;;;;3.77;63.14;99818.31;5080238;28;20037;-73
2021/01/20 01:12:45;;;;;;;20.58;10.50;;;;;;;3.78;63.84;99818.28;5062248;28;20044;-74
2021/01/20 01:15:11;;;;;;;22.40;10.50;;;;;;;4.33;62.05;99800.25;5060109;28;20489;-74
2021/01/20 01:17:37;;;;;;;19.15;10.43;;;;;;;3.82;62.55;99803.53;5064994;28;20504;-73
2021/01/20 01:20:03;;;;;;;17.65;10.13;;;;;;;4.65;60.87;99819.09;5061223;28;20127;-71
2021/01/20 01:22:28;;;;;;;21.25;11.60;;;;;;;3.80;63.66;99813.06;5065273;28;20025;-73
2021/01/20 01:24:54;;;;;;;21.50;11.30;;;;;;;3.93;62.49;99808.38;5063960;28;20069;-72
2021/01/20 01:27:20;;;;;;;17.92;10.50;;;;;;;3.82;63.50;99802.69;5060953;28;20020;-72
2021/01/20 01:29:48;;;;;;;21.95;10.82;;;;;;;4.25;61.66;99802.22;5067902;28;20507;-75
2021/01/20 01:32:36;;;;;;;27.55;11.20;;;;;;;4.66;60.69;99809.59;5060171;28;20028;-76
2021/01/20 01:35:07;;;;;;;22.67;10.60;;;;;;;4.22;61.86;99804.91;5063363;28;20039;-76
2021/01/20 01:37:32;;;;;;;18.88;10.48;;;;;;;4.42;61.41;99799.13;5062959;28;20032;-77
2021/01/20 01:40:20;;;;;;;21.08;10.60;;;;;;;4.01;62.53;99806.44;5052941;28;20032;-76
2021/01/20 01:43:15;;;;;;;23.15;11.15;;;;;;;4.18;62.22;99796.41;5054549;28;20033;-77
2021/01/20 01:45:44;;;;;;;21.77;10.27;;;;;;;4.50;61.00;99791.97;5062514;28;20024;-75
2021/01/20 01:48:10;;;;;;;19.20;10.48;;;;;;;4.00;62.22;99784.88;5064970;28;20640;-75
2021/01/20 01:50:36;;;;;;;22.00;11.10;;;;;;;3.43;64.09;99788.28;5075978;28;20047;-75
2021/01/20 01:53:02;;;;;;;25.48;12.27;;;;;;;3.77;63.17;99784.72;5077841;28;20098;-77
2021/01/20 01:55:48;;;;;;;23.25;11.20;;;;;;;4.83;59.94;99789.16;5071897;28;20040;-76
2021/01/20 01:58:31;;;;;;;20.90;11.43;;;;;;;3.60;62.86;99785.19;5067203;28;20024;-75
2021/01/20 02:01:03;;;;;;;;;;;;;;;4.30;61.37;99787.44;5064183;28;20066;-76
2021/01/20 02:03:39;;;;;;;22.10;11.32;;;;;;;4.77;59.85;99772.09;5053689;28;19927;-76
2021/01/20 02:06:05;;;;;;;22.88;12.75;;;;;;;4.12;61.32;99782.81;5074232;28;20024;-71
2021/01/20 02:08:32;;;;;;;20.00;9.70;;;;;;;4.04;62.45;99785.63;5063168;28;20544;-73
2021/01/20 02:11:18;;;;;;;25.92;12.20;;;;;;;4.22;61.50;99773.88;5060522;28;20606;-73
2021/01/20 02:13:55;;;;;;;18.75;11.10;;;;;;;3.73;62.78;99767.59;5080160;28;20047;-75
2021/01/20 02:16:50;;;;;;;18.23;10.95;;;;;;;3.67;62.66;99775.53;5067988;28;20094;-76
2021/01/20 02:19:48;;;;;;;24.73;11.82;;;;;;;4.34;61.00;99758.00;5066897;28;20035;-76
2021/01/20 02:22:41;;;;;;;22.25;11.40;;;;;;;4.59;60.41;99758.03;5071015;28;20115;-75
2021/01/20 02:25:57;;;;;;;25.73;10.98;;;;;;;4.06;61.39;99757.16;5041198;28;20064;-76
2021/01/20 02:28:44;;;;;;;20.60;11.05;;;;;;;3.98;61.22;99744.44;5065460;28;20166;-73
2021/01/20 02:31:23;;;;;;;18.38;10.95;;;;;;;4.39;60.55;99748.34;5065614;28;20040;-76
2021/01/20 02:33:52;;;;;;;22.67;11.43;;;;;;;3.47;62.90;99740.78;5052183;28;20080;-76
2021/01/20 02:36:27;;;;;;;25.20;11.90;;;;;;;4.10;61.08;99754.44;5068147;28;20036;-75
2021/01/20 02:39:11;;;;;;;23.33;11.75;;;;;;;4.00;61.57;99743.50;5061735;28;20108;-74
2021/01/20 02:41:37;;;;;;;17.95;10.25;;;;;;;4.07;61.61;99753.66;5068294;28;20512;-73
2021/01/20 02:44:24;;;;;;;23.88;11.80;;;;;;;4.28;60.27;99742.66;5060991;28;20603;-74
2021/01/20 02:46:58;;;;;;;20.60;11.52;;;;;;;4.44;60.08;99753.34;5066993;28;20031;-74
2021/01/20 02:49:37;;;;;;;23.70;11.90;;;;;;;4.14;60.98;99740.50;5066880;28;20139;-73
2021/01/20 02:52:32;;;;;;;20.98;10.48;;;;;;;4.59;59.57;99732.16;5063794;28;20439;-73
2021/01/20 02:55:18;;;;;;;17.73;10.32;;;;;;;3.79;61.88;99734.69;5075314;28;20787;-72
2021/01/20 02:58:23;;;;;;;17.10;11.20;;;;;;;3.64;62.53;99747.22;5051588;28;20040;-72
2021/01/20 03:01:11;;;;;;;18.23;9.27;;;;;;;4.35;60.09;99723.44;5025467;28;20509;-73
2021/01/20 03:03:38;;;;;;;21.00;10.43;;;;;;;4.00;61.32;99729.72;5077542;28;20032;-72
2021/01/20 03:06:04;;;;;;;19.52;10.23;;;;;;;4.55;59.31;99719.38;5064980;28;20488;-74
2021/01/20 03:08:30;;;;;;;16.60;10.43;;;;;;;4.19;60.58;99717.09;5061547;28;20106;-76
2021/01/20 03:10:56;;;;;;;24.90;10.63;;;;;;;3.55;61.73;99705.22;5069851;28;20051;-74
2021/01/20 03:13:23;;;;;;;24.10;10.15;;;;;;;4.25;60.55;99727.22;5061167;28;20139;-73
2021/01/20 03:15:50;;;;;;;20.92;10.68;;;;;;;4.28;60.08;99715.94;5066616;28;20032;-73
2021/01/20 03:18:15;;;;;;;17.05;9.98;;;;;;;3.75;62.42;99719.31;5063983;28;20046;-73
2021/01/20 03:20:41;;;;;;;22.95;9.18;;;;;;;4.06;61.01;99715.78;5061338;28;20045;-73
2021/01/20 03:23:06;;;;;;;18.20;11.20;;;;;;;4.51;59.72;99708.25;5065915;28;20378;-72
2021/01/20 03:25:32;;;;;;;19.33;9.50;;;;;;;4.47;59.58;99703.25;5082369;28;20626;-73
2021/01/20 03:27:57;;;;;;;21.27;10.70;;;;;;;4.54;59.27;99708.19;5062802;28;20044;-73
2021/01/20 03:30:23;;;;;;;21.35;9.82;;;;;;;4.09;60.43;99706.16;5060640;28;20044;-73
2021/01/20 03:35:29;;;;;;;21.45;10.45;;;;;;;4.05;60.28;99706.31;1432593;26;20535;-72
2021/01/20 03:37:55;;;;;;;17.40;9.45;;;;;;;4.01;60.58;99703.84;5048128;28;20068;-72
2021/01/20 03:40:20;;;;;;;17.58;9.13;;;;;;;4.14;60.09;99703.44;5040790;28;20059;-71
2021/01/20 03:42:45;;;;;;;22.15;9.55;;;;;;;3.64;61.22;99698.94;5043558;28;20041;-72
2021/01/20 03:45:11;;;;;;;23.52;9.30;;;;;;;4.12;60.11;99700.06;5044847;28;20457;-72
2021/01/20 03:47:37;;;;;;;18.98;9.45;;;;;;;4.35;59.80;99694.16;5036607;28;20183;-71
2021/01/20 03:50:03;;;;;;;17.92;9.65;;;;;;;4.63;59.17;99696.66;5042426;28;20037;-71
2021/01/20 03:52:28;;;;;;;16.83;9.05;;;;;;;3.84;60.51;99700.09;5041454;28;20529;-71
2021/01/20 03:54:57;;;;;;;21.45;9.57;;;;;;;3.80;61.40;99697.59;5042389;28;20147;-72
2021/01/20 03:57:23;;;;;;;11.02;7.40;;;;;;;4.13;60.24;99694.00;5041712;28;20037;-72
2021/01/20 03:59:48;;;;;;;11.13;8.23;;;;;;;4.36;59.54;99681.19;5046642;28;20509;-72
2021/01/20 04:02:14;;;;;;;20.58;9.07;;;;;;;4.16;60.36;99680.97;5042980;28;20033;-71
2021/01/20 04:04:39;;;;;;;14.82;9.25;;;;;;;3.93;60.74;99682.53;5042652;28;20041;-71
2021/01/20 04:07:05;;;;;;;17.98;8.43;;;;;;;4.12;60.33;99675.06;5061289;28;20031;-72
2021/01/20 04:09:30;;;;;;;16.35;8.55;;;;;;;4.28;59.72;99664.22;5042885;28;20107;-71
2021/01/20 04:11:56;;;;;;;18.42;9.60;;;;;;;3.32;62.35;99662.00;5040670;28;20037;-72
2021/01/20 04:14:22;;;;;;;14.38;7.70;;;;;;;3.98;60.60;99662.59;5030542;28;20025;-71
2021/01/20 04:16:47;;;;;;;21.40;8.63;;;;;;;3.83;60.98;99667.38;5044039;28;20029;-71
2021/01/20 04:19:13;;;;;;;20.73;8.80;;;;;;;3.96;60.63;99664.38;5042988;28;20068;-71
2021/01/20 04:21:38;;;;;;;21.83;9.05;;;;;;;3.99;60.26;99664.25;5040656;28;20037;-72
2021/01/20 04:24:04;;;;;;;13.77;8.02;;;;;;;4.05;60.09;99670.13;5043921;28;20037;-71
2021/01/20 04:26:30;;;;;;;15.65;8.45;;;;;;;4.14;60.08;99656.88;5040871;28;20035;-71
2021/01/20 04:28:55;;;;;;;15.07;7.10;;;;;;;3.88;60.40;99653.41;5044993;28;20033;-71
2021/01/20 04:31:21;;;;;;;12.05;8.13;;;;;;;4.05;59.80;99652.03;5043765;28;20063;-72
2021/01/20 04:33:46;;;;;;;15.23;7.70;;;;;;;4.25;60.13;99662.56;5046399;28;20486;-72
2021/01/20 04:36:12;;;;;;;14.57;7.60;;;;;;;3.87;60.54;99659.47;5041597;28;20064;-72
2021/01/20 04:38:37;;;;;;;16.25;9.10;;;;;;;3.86;60.62;99668.13;5043651;28;20041;-71
2021/01/20 04:41:03;;;;;;;16.30;7.65;;;;;;;3.67;61.35;99662.69;5044990;28;20487;-72
2021/01/20 04:43:28;;;;;;;17.25;7.63;;;;;;;3.87;60.94;99653.44;5041797;28;20026;-71
2021/01/20 04:45:54;;;;;;;14.48;7.40;;;;;;;4.00;60.68;99655.59;5042683;28;20029;-71
2021/01/20 04:48:20;;;;;;;13.05;7.55;;;;;;;3.70;61.56;99656.59;5041629;28;20059;-71
2021/01/20 04:50:49;;;;;;;15.38;7.80;;;;;;;3.84;60.25;99646.66;5045306;28;20102;-72
2021/01/20 04:53:15;;;;;;;18.67;7.85;;;;;;;4.16;59.52;99640.44;5025289;28;20036;-71
2021/01/20 04:55:43;;;;;;;16.42;7.70;;;;;;;3.90;60.66;99646.47;5044319;28;20045;-71
2021/01/20 04:58:10;;;;;;;19.63;8.30;;;;;;;3.99;59.88;99653.91;5044457;28;20566;-71
2021/01/20 05:00:40;;;;;;;12.98;7.35;;;;;;;4.48;58.88;99635.94;5040959;28;20055;-71
2021/01/20 05:03:07;;;;;;;18.58;7.45;;;;;;;4.28;59.36;99648.69;5044828;28;20509;-71
2021/01/20 05:05:34;;;;;;;14.63;7.85;;;;;;;4.56;58.32;99643.41;5044584;28;20491;-72
2021/01/20 05:08:03;;;;;;;11.40;7.38;;;;;;;3.43;61.36;99645.34;5043303;28;20128;-71
2021/01/20 05:10:29;;;;;;;10.50;6.03;;;;;;;4.27;59.65;99642.66;5041289;28;20028;-72
2021/01/20 05:12:55;;;;;;;10.90;6.82;;;;;;;4.14;59.76;99644.81;5040509;28;20496;-72
2021/01/20 05:15:34;;;;;;;16.02;7.85;;;;;;;3.94;60.79;99644.59;5054490;28;20025;-71
2021/01/20 05:18:05;;;;;;;19.17;7.60;;;;;;;4.33;59.87;99634.69;5035509;28;20033;-72
2021/01/20 05:20:33;;;;;;;17.48;6.97;;;;;;;4.51;59.41;99629.78;5040494;28;20435;-72
2021/01/20 05:23:00;;;;;;;15.73;7.95;;;;;;;3.74;61.74;99638.34;5056682;28;20474;-71
2021/01/20 05:25:27;;;;;;;13.48;7.53;;;;;;;3.79;61.46;99630.44;5040589;28;20098;-71
2021/01/20 05:27:52;;;;;;;15.10;7.05;;;;;;;3.97;60.96;99636.78;5046727;28;20154;-72
2021/01/20 05:30:18;;;;;;;21.63;7.38;;;;;;;4.27;60.10;99615.94;5039121;28;20043;-71
2021/01/20 05:32:54;;;;;;;17.80;7.72;;;;;;;3.91;60.51;99619.69;5041099;28;20041;-71
2021/01/20 05:35:20;;;;;;;21.10;8.30;;;;;;;4.25;59.79;99613.41;5038254;28;20039;-72
2021/01/20 05:37:48;;;;;;;12.77;7.30;;;;;;;3.98;60.44;99610.88;5046304;28;20047;-71
2021/01/20 05:40:15;;;;;;;17.85;6.43;;;;;;;3.71;61.09;99616.91;5038074;28;20033;-71
2021/01/20 05:42:45;;;;;;;18.13;7.85;;;;;;;4.22;59.74;99606.59;5040651;28;20069;-72
2021/01/20 05:45:11;;;;;;;9.13;5.65;;;;;;;4.32;59.74;99603.69;5040862;28;20549;-71
2021/01/20 05:47:37;;;;;;;11.80;7.45;;;;;;;4.56;58.99;99591.66;5041620;28;20091;-71
2021/01/20 05:50:07;;;;;;;17.23;7.50;;;;;;;4.22;60.01;99600.59;5038297;28;20087;-71
2021/01/20 05:52:33;;;;;;;13.07;7.03;;;;;;;3.95;60.68;99602.38;5056902;28;20095;-71
2021/01/20 05:55:09;;;;;;;13.30;6.75;;;;;;;4.13;60.15;99600.91;5047491;28;20402;-71
2021/01/20 05:57:35;;;;;;;16.38;7.68;;;;;;;4.21;59.42;99597.16;5047302;28;20384;-71
2021/01/20 06:00:13;;;;;;;14.27;7.57;;;;;;;4.60;58.45;99598.41;5044032;28;20040;-71
2021/01/20 06:02:40;;;;;;;13.10;6.82;;;;;;;4.56;58.90;99597.66;5058825;28;20474;-72
2021/01/20 06:05:08;;;;;;;12.95;6.70;;;;;;;4.11;60.08;99605.28;5045890;28;20112;-71
2021/01/20 06:07:36;;;;;;;11.90;6.88;;;;;;;3.85;60.60;99604.41;5050165;28;20070;-72
2021/01/20 06:10:03;;;;;;;13.57;6.32;;;;;;;4.12;59.84;99594.91;5045705;28;20040;-72
2021/01/20 06:12:28;;;;;;;10.13;6.25;;;;;;;4.15;60.13;99601.69;5043095;28;20037;-71
2021/01/20 06:14:53;;;;;;;11.30;6.10;;;;;;;4.18;59.35;99597.25;5046125;28;20544;-71
2021/01/20 06:17:34;;;;;;;7.63;5.45;;;;;;;4.70;58.09;99592.03;5042496;28;20033;-71
2021/01/20 06:20:03;;;;;;;13.50;6.63;;;;;;;4.74;57.96;99579.78;5033337;28;20025;-71
2021/01/20 06:22:30;;;;;;;13.43;7.07;;;;;;;4.70;58.20;99579.09;5042760;28;20029;-72
2021/01/20 06:25:13;;;;;;;28.60;7.65;;;;;;;4.59;58.66;99581.22;5045748;28;20124;-72
2021/01/20 06:27:45;;;;;;;9.82;5.70;;;;;;;4.38;58.98;99588.81;5041543;28;20041;-71
2021/01/20 06:30:17;;;;;;;11.50;7.25;;;;;;;4.12;60.21;99581.09;5045609;28;20591;-71
2021/01/20 06:32:49;;;;;;;9.85;6.07;;;;;;;3.82;60.82;99588.97;5030195;28;20037;-71
2021/01/20 06:35:15;;;;;;;17.08;6.90;;;;;;;4.58;58.84;99585.53;5046424;28;20044;-71
2021/01/20 06:37:46;;;;;;;11.20;6.35;;;;;;;4.39;59.12;99581.91;5064252;28;20033;-72
2021/01/20 06:40:18;;;;;;;12.65;6.22;;;;;;;4.56;58.81;99584.72;5043471;28;20029;-71
2021/01/20 06:42:43;;;;;;;11.98;6.78;;;;;;;4.43;58.61;99575.72;5047916;28;20390;-71
2021/01/20 06:45:27;;;;;;;14.23;6.68;;;;;;;5.14;57.17;99588.72;5042376;28;20037;-71
2021/01/20 06:47:59;;;;;;;11.18;6.75;;;;;;;5.06;57.22;99591.59;5047933;28;20553;-72
2021/01/20 06:50:31;;;;;;;10.70;6.75;;;;;;;4.38;58.75;99582.78;5049136;28;20040;-71
2021/01/20 06:53:04;;;;;;;10.38;5.65;;;;;;;4.29;59.43;99578.78;5044654;28;20123;-72
2021/01/20 06:55:34;;;;;;;9.52;7.28;;;;;;;4.82;58.05;99583.78;5041784;28;20021;-71
2021/01/20 06:58:20;;;;;;;13.18;6.35;;;;;;;3.73;60.40;99558.28;5045803;28;20033;-71
2021/01/20 07:01:00;;;;;;;11.20;6.93;;;;;;;5.06;57.46;99586.44;5048427;28;20032;-71
2021/01/20 07:03:48;;;;;;;12.32;6.55;;;;;;;4.62;58.15;99575.91;5042739;28;20083;-72
2021/01/20 07:06:32;;;;;;;11.48;6.85;;;;;;;4.60;58.45;99577.72;5045243;28;20417;-72
2021/01/20 07:08:58;;;;;;;14.32;6.20;;;;;;;4.10;59.69;99582.91;5062477;28;20025;-71
2021/01/20 07:11:24;;;;;;;11.85;6.45;;;;;;;4.52;58.87;99579.72;5043253;28;20079;-71
2021/01/20 07:13:49;;;;;;;11.52;5.75;;;;;;;4.50;58.86;99584.97;5051269;28;20036;-71
2021/01/20 07:16:16;;;;;;;11.73;5.82;;;;;;;4.66;57.91;99577.50;5046176;28;20100;-71
2021/01/20 07:18:45;;;;;;;7.60;5.40;;;;;;;4.46;58.66;99572.19;5048647;28;20608;-71
2021/01/20 07:21:11;;;;;;;13.73;6.22;;;;;;;4.58;57.79;99584.69;5047671;28;20021;-71
2021/01/20 07:23:37;;;;;;;9.43;5.28;;;;;;;4.21;58.79;99571.31;5044017;28;20549;-71
2021/01/20 07:26:04;;;;;;;8.05;5.10;;;;;;;4.93;56.66;99574.84;5040802;28;20036;-71
2021/01/20 07:28:31;;;;;;;13.50;5.07;;;;;;;5.06;56.40;99586.44;5046730;28;20033;-72
2021/01/20 07:31:13;;;;;;;12.70;5.30;;;;;;;4.27;58.68;99580.59;5043834;28;20036;-71
2021/01/20 07:33:39;;;;;;;;;;;;;;;4.54;57.94;99577.94;5044278;28;20096;-71
2021/01/20 07:36:10;;;;;;;9.82;5.32;;;;;;;4.26;58.76;99565.97;5043112;28;19924;-71
2021/01/20 07:38:35;;;;;;;8.27;3.80;;;;;;;5.05;56.68;99584.72;5037743;28;20033;-70
2021/01/20 07:41:13;;;;;;;9.10;4.75;;;;;;;5.73;54.39;99576.94;5044851;28;20079;-70
2021/01/20 07:43:38;;;;;;;13.27;5.60;;;;;;;5.59;54.92;99570.53;5042210;28;20534;-71
2021/01/20 07:46:13;;;;;;;5.13;4.05;;;;;;;4.66;57.50;99572.31;5035870;28;20029;-71
2021/01/20 07:48:38;;;;;;;10.02;5.00;;;;;;;4.99;56.52;99565.09;5025716;28;20541;-70
2021/01/20 07:51:04;;;;;;;10.35;4.63;;;;;;;5.06;56.14;99570.88;5048992;28;20127;-71
2021/01/20 07:53:30;;;;;;;10.43;4.85;;;;;;;5.50;55.06;99563.13;5046449;28;20028;-71
2021/01/20 07:55:55;;;;;;;7.03;4.18;;;;;;;4.73;56.67;99563.44;5045529;28;20037;-71
2021/01/20 07:58:28;;;;;;;9.18;4.88;;;;;;;4.27;58.30;99559.88;5047004;28;20047;-71
2021/01/20 08:00:54;;;;;;;9.25;3.70;;;;;;;5.07;56.01;99562.19;5045857;28;20036;-71
2021/01/20 08:03:36;;;;;;;8.48;4.95;;;;;;;4.63;57.16;99568.09;5046846;28;20406;-71
2021/01/20 08:06:07;;;;;;;10.03;4.63;;;;;;;5.12;56.26;99564.59;5044276;28;20494;-71
2021/01/20 08:08:32;;;;;;;8.05;3.70;;;;;;;4.83;57.56;99569.97;5024569;28;20025;-72
2021/01/20 08:11:00;;;;;;;5.82;3.47;;;;;;;4.74;56.87;99565.09;5042133;28;20042;-72
2021/01/20 08:13:29;;;;;;;5.93;4.05;;;;;;;4.99;56.91;99553.91;5045203;28;20099;-72
2021/01/20 08:15:55;;;;;;;6.72;4.03;;;;;;;4.64;57.33;99561.19;5046769;28;20066;-70
2021/01/20 08:18:22;;;;;;;11.77;5.53;;;;;;;4.10;59.27;99567.41;5043318;28;20431;-71
2021/01/20 08:20:48;;;;;;;11.65;4.80;;;;;;;5.31;56.41;99572.53;5043565;28;20031;-71
2021/01/20 08:23:30;;;;;;;8.32;3.88;;;;;;;5.50;55.72;99560.53;5044314;28;20116;-71
2021/01/20 08:26:06;;;;;;;6.28;3.33;;;;;;;5.21;56.28;99561.66;5043789;28;20108;-71
2021/01/20 08:28:32;;;;;;;10.88;4.00;;;;;;;5.18;56.48;99559.19;5041653;28;20096;-71
2021/01/20 08:30:58;;;;;;;9.35;4.20;;;;;;;4.25;58.93;99556.50;5042912;28;20027;-72
2021/01/20 08:33:23;;;;;;;8.57;4.63;;;;;;;4.82;57.74;99568.25;5046494;28;20537;-71
2021/01/20 08:35:58;;;;;;;7.72;4.68;;;;;;;5.02;57.78;99559.78;5047849;28;20041;-72
2021/01/20 08:38:28;;;;;;;6.82;4.38;;;;;;;4.62;58.32;99550.03;5045658;28;20057;-72
2021/01/20 08:41:14;;;;;;;10.82;4.45;;;;;;;4.37;58.76;99550.91;5028547;28;20026;-71
2021/01/20 08:43:40;;;;;;;8.57;4.53;;;;;;;5.09;57.09;99551.78;5044021;28;20044;-71
2021/01/20 08:46:25;;;;;;;8.10;4.47;;;;;;;5.43;56.17;99559.91;5042303;28;20036;-70
2021/01/20 08:48:58;;;;;;;7.55;4.28;;;;;;;4.84;57.01;99553.53;5044648;28;20033;-71
2021/01/20 08:51:25;;;;;;;7.10;4.07;;;;;;;5.38;56.55;99555.84;5046133;28;20025;-69
2021/01/20 08:53:50;;;;;;;9.65;4.75;;;;;;;4.73;57.74;99557.41;5027386;28;20029;-70
2021/01/20 08:56:26;;;;;;;6.40;4.00;;;;;;;4.89;57.89;99555.97;5039751;28;20345;-71
2021/01/20 08:58:53;;;;;;;7.53;4.05;;;;;;;4.53;59.52;99560.72;5048559;28;20031;-70
2021/01/20 09:01:21;;;;;;;10.38;4.38;;;;;;;5.38;57.10;99567.03;5053579;28;20331;-71
2021/01/20 09:03:58;;;;;;;8.38;4.05;;;;;;;4.70;59.84;99550.63;5025178;28;20094;-72
2021/01/20 09:06:24;;;;;;;9.23;4.38;;;;;;;4.78;59.87;99561.50;5038831;28;20030;-72
2021/01/20 09:08:49;;;;;;;9.38;4.45;;;;;;;4.35;61.09;99552.72;5040721;28;20036;-71
2021/01/20 09:11:15;;;;;;;7.13;3.92;;;;;;;5.13;58.75;99561.97;5043389;28;20037;-71
2021/01/20 09:13:40;;;;;;;9.93;4.30;;;;;;;4.59;60.13;99555.34;5057183;28;20125;-71
2021/01/20 09:16:07;;;;;;;6.93;3.67;;;;;;;5.12;58.33;99555.09;5024425;28;20131;-72
2021/01/20 09:18:32;;;;;;;6.40;3.90;;;;;;;5.00;58.49;99551.22;5039239;28;20060;-71
2021/01/20 09:20:58;;;;;;;9.80;3.90;;;;;;;4.58;59.21;99533.75;5028381;28;20159;-72
2021/01/20 09:23:23;;;;;;;7.18;4.80;;;;;;;5.19;58.02;99551.38;5039151;28;20112;-72
2021/01/20 09:25:49;;;;;;;7.00;3.90;;;;;;;5.37;57.16;99543.78;5044290;28;20099;-72
2021/01/20 09:28:15;;;;;;;6.47;4.10;;;;;;;5.44;56.58;99546.06;5046942;28;20044;-71
2021/01/20 09:30:41;;;;;;;9.30;3.50;;;;;;;5.36;56.85;99552.47;5046284;28;20120;-71
2021/01/20 09:33:07;;;;;;;4.68;3.28;;;;;;;4.89;57.46;99557.72;5044436;28;20036;-71
2021/01/20 09:35:32;;;;;;;7.00;4.03;;;;;;;5.05;57.31;99538.94;5058471;28;20037;-73
2021/01/20 09:37:58;;;;;;;6.80;3.58;;;;;;;4.53;58.81;99535.69;5041405;28;20052;-71
2021/01/20 09:40:26;;;;;;;9.45;3.03;;;;;;;4.79;57.74;99542.50;5044372;28;20670;-72
2021/01/20 09:42:52;;;;;;;5.30;3.90;;;;;;;4.84;57.47;99540.56;5045618;28;20036;-72
2021/01/20 09:45:22;;;;;;;6.95;3.40;;;;;;;5.66;55.26;99548.66;5042229;28;20064;-71
2021/01/20 09:47:48;;;;;;;5.93;2.83;;;;;;;5.12;57.10;99549.91;5047934;28;20032;-73
2021/01/20 09:50:16;;;;;;;6.80;3.50;;;;;;;5.14;56.39;99542.94;5044335;28;20036;-72
2021/01/20 09:52:43;;;;;;;5.25;3.38;;;;;;;4.88;56.85;99536.16;5038464;28;20037;-72
2021/01/20 09:55:09;;;;;;;5.50;2.92;;;;;;;5.30;56.36;99537.16;5041691;28;20042;-72
2021/01/20 09:57:35;;;;;;;8.00;3.60;;;;;;;5.75;55.24;99543.97;5041779;28;20033;-72
2021/01/20 10:00:02;;;;;;;5.07;2.58;;;;;;;5.81;54.95;99528.16;5043695;28;20025;-72
2021/01/20 10:02:37;;;;;;;4.78;2.70;;;;;;;5.41;55.66;99519.44;5045916;28;20734;-72
2021/01/20 10:05:03;;;;;;;4.50;3.00;;;;;;;5.73;55.15;99533.69;5040554;28;20032;-72
2021/01/20 10:07:28;;;;;;;6.35;2.47;;;;;;;5.89;54.55;99526.09;5040553;28;20059;-71
2021/01/20 10:09:54;;;;;;;5.68;3.80;;;;;;;5.32;55.83;99535.34;5047181;28;20069;-72
2021/01/20 10:12:19;;;;;;;5.43;2.20;;;;;;;5.61;55.08;99537.63;5042864;28;20102;-71
2021/01/20 10:14:46;;;;;;;7.28;2.65;;;;;;;5.66;55.12;99520.13;5047771;28;20032;-72
2021/01/20 10:17:12;;;;;;;3.78;2.47;;;;;;;5.83;55.06;99514.22;5058196;28;20372;-72
2021/01/20 10:19:37;;;;;;;3.80;2.03;;;;;;;6.19;53.94;99523.09;5056737;28;20912;-72
2021/01/20 10:22:03;;;;;;;7.18;2.60;;;;;;;6.20;53.90;99530.00;5044975;28;20052;-72
2021/01/20 10:24:28;;;;;;;6.50;3.45;;;;;;;6.28;54.00;99528.78;5041947;28;20017;-72
2021/01/20 10:26:55;;;;;;;3.33;2.42;;;;;;;6.15;54.33;99531.94;5040412;28;20628;-71
2021/01/20 10:29:21;;;;;;;4.97;2.80;;;;;;;6.20;54.26;99520.47;5041733;28;20542;-71
2021/01/20 10:31:46;;;;;;;4.95;2.45;;;;;;;6.44;53.52;99517.72;5045920;28;20029;-72
2021/01/20 10:34:13;;;;;;;5.00;2.63;;;;;;;5.77;55.49;99526.59;5040204;28;20663;-72
2021/01/20 10:36:39;;;;;;;3.97;2.13;;;;;;;5.60;55.39;99522.13;5046265;28;20053;-71
2021/01/20 10:39:06;;;;;;;2.67;1.98;;;;;;;5.94;54.93;99524.16;5043521;28;20619;-71
2021/01/20 10:41:32;;;;;;;2.95;2.10;;;;;;;5.79;55.49;99514.44;5042284;28;20040;-72
2021/01/20 10:43:58;;;;;;;3.65;1.85;;;;;;;6.18;54.27;99505.88;5041570;28;20087;-72
2021/01/20 10:46:27;;;;;;;6.57;2.38;;;;;;;6.29;53.93;99503.69;5044588;28;20033;-73
2021/01/20 10:48:57;;;;;;;6.70;2.50;;;;;;;6.19;54.04;99499.75;5041277;28;20336;-71
2021/01/20 10:51:24;;;;;;;5.80;2.55;;;;;;;5.65;55.11;99513.25;5028479;28;20033;-71
2021/01/20 10:53:51;;;;;;;7.05;2.58;;;;;;;5.99;54.96;99511.81;5056438;28;20044;-73
2021/01/20 10:56:17;;;;;;;4.07;2.17;;;;;;;6.62;53.08;99511.72;5044766;28;20075;-70
2021/01/20 10:58:43;;;;;;;3.35;1.90;;;;;;;6.38;53.57;99503.28;5044016;28;20033;-71
2021/01/20 11:01:10;;;;;;;2.95;1.92;;;;;;;6.28;54.12;99517.53;5041899;28;20025;-72
2021/01/20 11:03:38;;;;;;;3.78;1.65;;;;;;;5.59;56.42;99523.03;5038887;28;20025;-70
2021/01/20 11:06:03;;;;;;;3.50;1.67;;;;;;;6.13;54.66;99518.19;5037858;28;20029;-70
2021/01/20 11:08:29;;;;;;;2.22;1.58;;;;;;;5.97;55.28;99513.66;5045342;28;20036;-72
2021/01/20 11:10:54;;;;;;;3.45;1.85;;;;;;;6.56;53.53;99522.38;5025607;28;20820;-71
2021/01/20 11:13:20;;;;;;;3.85;2.38;;;;;;;6.13;54.78;99513.00;5027504;28;20917;-71
2021/01/20 11:15:45;;;;;;;2.17;1.85;;;;;;;6.38;54.67;99507.63;5041989;28;20048;-72
2021/01/20 11:18:16;;;;;;;3.72;2.28;;;;;;;6.61;54.12;99514.38;5031672;28;20116;-71
2021/01/20 11:20:43;;;;;;;6.00;1.92;;;;;;;6.00;54.43;99500.56;5037153;28;20033;-73
2021/01/20 11:23:12;;;;;;;4.03;1.75;;;;;;;6.06;55.10;99513.28;5038821;28;20064;-71
2021/01/20 11:25:48;;;;;;;3.85;1.58;;;;;;;6.60;53.22;99499.72;5039557;28;20068;-73
2021/01/20 11:28:14;;;;;;;3.83;1.83;;;;;;;6.76;53.81;99494.66;5040688;28;20045;-72
2021/01/20 11:30:41;;;;;;;3.03;1.70;;;;;;;6.49;53.92;99493.25;5037269;28;20091;-72
2021/01/20 11:33:07;;;;;;;3.05;1.80;;;;;;;6.67;53.81;99493.34;5058064;28;20033;-70
2021/01/20 11:35:33;;;;;;;5.38;2.33;;;;;;;5.87;55.39;99497.63;5040897;28;20044;-73
2021/01/20 11:37:59;;;;;;;3.47;1.50;;;;;;;6.63;53.46;99492.63;5038246;28;20029;-71
2021/01/20 11:40:29;;;;;;;3.25;1.38;;;;;;;6.65;53.96;99483.00;5034612;28;20059;-71
2021/01/20 11:42:58;;;;;;;2.35;1.08;;;;;;;6.82;53.50;99492.63;5039741;28;20020;-71
2021/01/20 11:45:44;;;;;;;3.55;1.67;;;;;;;6.76;53.72;99485.13;5042063;28;20025;-71
2021/01/20 11:48:10;;;;;;;2.80;1.52;;;;;;;6.50;53.83;99488.88;5038373;28;20037;-70